Time;durP1;ratioP1;P1;durP2;ratioP2;P2;SDS_P1;SDS_P2;PMS_P1;PMS_P2;Temp;Humidity;BMP_temperature;BMP_pressure;BME280_temperature;BME280_humidity;BME280_pressure;Samples;Min_cycle;Max_cycle;Signal;HPM_P1;HPM_P2
2023/10/17 00:00:25;;;;;;;8.55;7.35;;;10.60;67.10;;;;;;4991563;28;20089;-51
2023/10/17 00:02:41;;;;;;;8.07;7.05;;;10.60;67.10;;;;;;4991010;28;20465;-51
2023/10/17 00:05:13;;;;;;;9.73;7.18;;;10.60;67.10;;;;;;4988026;28;20039;-50
2023/10/17 00:07:45;;;;;;;;;;;10.50;67.20;;;;;;4991801;28;20046;-53
2023/10/17 00:10:18;;;;;;;7.28;6.38;;;10.60;67.60;;;;;;4990079;28;20415;-54
2023/10/17 00:12:46;;;;;;;9.30;7.22;;;10.50;66.70;;;;;;4985148;28;20056;-53
2023/10/17 00:15:27;;;;;;;7.50;6.78;;;10.40;66.60;;;;;;4990533;28;20404;-54
2023/10/17 00:18:11;;;;;;;7.22;6.45;;;10.40;66.70;;;;;;4992238;28;20044;-52
2023/10/17 00:20:39;;;;;;;8.63;6.95;;;10.30;66.60;;;;;;4985049;28;20130;-51
2023/10/17 00:23:07;;;;;;;7.40;5.97;;;10.30;66.60;;;;;;4990915;28;20578;-51
2023/10/17 00:25:37;;;;;;;7.88;5.53;;;10.20;66.50;;;;;;4982882;28;20038;-53
2023/10/17 00:28:10;;;;;;;7.13;6.40;;;10.20;66.40;;;;;;4992014;28;20374;-51
2023/10/17 00:30:38;;;;;;;;;;;10.10;66.50;;;;;;4985853;28;20504;-51
2023/10/17 00:33:09;;;;;;;6.03;4.80;;;10.20;66.70;;;;;;4990262;28;19921;-52
2023/10/17 00:35:40;;;;;;;6.97;5.50;;;10.10;66.20;;;;;;4984381;28;20125;-51
2023/10/17 00:38:07;;;;;;;8.70;6.50;;;10.00;66.30;;;;;;4989884;28;20050;-51
2023/10/17 00:40:49;;;;;;;6.82;6.00;;;10.00;66.40;;;;;;4990620;28;20112;-53
2023/10/17 00:43:16;;;;;;;7.03;5.87;;;9.90;66.50;;;;;;4986487;28;20503;-53
2023/10/17 00:45:46;;;;;;;8.73;6.35;;;9.90;66.50;;;;;;4985460;28;20045;-55
2023/10/17 00:48:18;;;;;;;7.20;6.45;;;9.90;66.50;;;;;;4989508;28;20073;-51
2023/10/17 00:50:47;;;;;;;8.00;6.63;;;9.80;66.60;;;;;;4986581;28;20050;-57
2023/10/17 00:53:17;;;;;;;7.05;6.10;;;9.80;66.60;;;;;;4989188;28;20317;-53
2023/10/17 00:55:52;;;;;;;8.30;6.95;;;9.80;66.70;;;;;;4983872;28;20061;-51
2023/10/17 00:58:21;;;;;;;8.10;6.68;;;9.80;66.90;;;;;;4990716;28;20050;-53
2023/10/17 01:00:55;;;;;;;9.23;6.30;;;9.80;67.00;;;;;;4988134;28;20440;-53
2023/10/17 01:03:25;;;;;;;9.75;6.57;;;9.80;67.10;;;;;;4989990;28;20540;-52
2023/10/17 01:08:47;;;;;;;7.80;6.18;;;9.80;67.30;;;;;;4990393;28;20053;-55
2023/10/17 01:11:29;;;;;;;7.78;6.55;;;9.80;67.30;;;;;;4985506;28;20042;-53
2023/10/17 01:13:57;;;;;;;10.35;6.43;;;9.80;67.40;;;;;;4987737;28;20535;-55
2023/10/17 01:16:25;;;;;;;8.35;6.82;;;9.80;67.50;;;;;;4987285;28;20053;-55
2023/10/17 01:18:53;;;;;;;8.18;6.88;;;9.80;67.70;;;;;;4990631;28;20101;-55
2023/10/17 01:21:21;;;;;;;8.75;6.78;;;9.90;68.00;;;;;;4983833;28;20141;-56
2023/10/17 01:23:49;;;;;;;7.20;6.50;;;9.90;68.10;;;;;;4989945;28;20066;-56
2023/10/17 01:26:23;;;;;;;7.75;6.65;;;9.90;68.20;;;;;;4983618;28;20038;-55
2023/10/17 01:28:53;;;;;;;7.72;6.40;;;9.90;68.20;;;;;;4988999;28;20478;-56
2023/10/17 01:31:24;;;;;;;9.07;7.43;;;9.90;68.30;;;;;;4988589;28;20117;-56
2023/10/17 01:33:55;;;;;;;9.82;6.63;;;10.00;68.40;;;;;;4984063;28;20130;-57
2023/10/17 01:36:23;;;;;;;8.32;6.50;;;10.00;68.60;;;;;;4989854;28;20105;-55
2023/10/17 01:38:50;;;;;;;9.50;7.13;;;10.00;68.50;;;;;;4989212;28;20050;-58
2023/10/17 01:41:20;;;;;;;8.93;7.05;;;10.10;68.60;;;;;;4987500;28;20061;-55
2023/10/17 01:43:50;;;;;;;7.65;6.85;;;10.10;68.50;;;;;;4988217;28;20146;-56
2023/10/17 01:46:28;;;;;;;8.55;6.70;;;10.10;68.50;;;;;;4998219;28;20125;-53
2023/10/17 01:49:10;;;;;;;6.50;5.80;;;10.10;68.40;;;;;;4989249;28;20480;-54
2023/10/17 01:51:43;;;;;;;8.10;6.30;;;10.10;68.40;;;;;;4985687;28;20073;-53
2023/10/17 01:54:14;;;;;;;6.40;5.70;;;10.10;68.30;;;;;;4987893;28;20053;-56
2023/10/17 01:56:47;;;;;;;7.93;6.10;;;10.10;68.20;;;;;;4983196;28;20077;-52
2023/10/17 01:59:25;;;;;;;8.70;5.03;;;10.10;68.10;;;;;;4988469;28;20054;-55
2023/10/17 02:01:57;;;;;;;6.07;5.15;;;10.10;68.00;;;;;;4987737;28;20072;-56
2023/10/17 02:04:24;;;;;;;7.15;5.38;;;10.10;68.10;;;;;;4987675;28;20042;-56
2023/10/17 02:06:52;;;;;;;6.07;5.30;;;10.10;68.10;;;;;;4987727;28;20030;-54
2023/10/17 02:09:44;;;;;;;7.38;6.00;;;10.10;68.10;;;;;;4988101;28;20097;-58
2023/10/17 02:12:12;;;;;;;;;;;10.10;68.00;;;;;;4977372;28;20548;-54
2023/10/17 02:14:41;;;;;;;6.50;4.95;;;10.10;68.30;;;;;;4989197;28;19961;-57
2023/10/17 02:17:09;;;;;;;6.95;4.95;;;10.10;67.60;;;;;;4988226;28;20069;-54
2023/10/17 02:19:38;;;;;;;6.63;5.03;;;10.00;67.50;;;;;;4988043;28;20049;-55
2023/10/17 02:22:09;;;;;;;6.28;5.00;;;10.10;67.70;;;;;;4986083;28;20054;-56
2023/10/17 02:24:37;;;;;;;5.65;5.10;;;10.00;67.70;;;;;;4981983;28;20101;-55
2023/10/17 02:27:09;;;;;;;5.78;5.18;;;10.00;67.80;;;;;;4987194;28;20042;-55
2023/10/17 02:29:39;;;;;;;6.78;5.32;;;10.00;67.90;;;;;;5001442;28;20096;-54
2023/10/17 02:32:11;;;;;;;5.82;4.93;;;10.00;67.90;;;;;;4988862;28;20038;-56
2023/10/17 02:34:38;;;;;;;;;;;10.00;67.90;;;;;;4993812;28;20050;-56
2023/10/17 02:37:10;;;;;;;5.55;4.53;;;10.00;68.20;;;;;;4988030;28;19921;-55
2023/10/17 02:39:38;;;;;;;5.53;4.93;;;10.00;67.60;;;;;;4990837;28;20096;-51
2023/10/17 02:42:08;;;;;;;6.22;5.63;;;10.00;67.80;;;;;;4991765;28;20046;-56
2023/10/17 02:44:39;;;;;;;5.28;4.78;;;10.00;68.00;;;;;;4981753;28;20042;-57
2023/10/17 02:47:13;;;;;;;6.43;5.07;;;9.90;68.00;;;;;;4975661;28;20042;-60
2023/10/17 02:49:43;;;;;;;6.32;5.43;;;10.00;68.10;;;;;;4994097;28;20045;-54
2023/10/17 02:52:09;;;;;;;5.63;5.03;;;10.00;68.10;;;;;;4990637;28;20093;-55
2023/10/17 02:54:55;;;;;;;6.40;5.25;;;9.90;68.30;;;;;;4993152;28;20093;-55
2023/10/17 02:57:23;;;;;;;6.88;5.28;;;9.90;68.30;;;;;;4987812;28;20045;-54
2023/10/17 02:59:57;;;;;;;9.50;5.43;;;9.90;68.60;;;;;;4992523;28;20038;-55
2023/10/17 03:02:36;;;;;;;9.48;6.45;;;9.90;68.80;;;;;;4990412;28;20685;-54
2023/10/17 03:05:11;;;;;;;8.50;5.78;;;9.90;68.90;;;;;;4988487;28;20501;-57
2023/10/17 03:07:38;;;;;;;6.65;5.60;;;10.00;69.00;;;;;;4993716;28;20448;-54
2023/10/17 03:10:06;;;;;;;6.38;5.57;;;10.00;69.00;;;;;;4991428;28;20115;-57
2023/10/17 03:12:40;;;;;;;7.22;5.70;;;10.00;69.00;;;;;;4981265;28;20050;-55
2023/10/17 03:17:43;;;;;;;8.15;6.10;;;10.00;69.00;;;;;;4993653;28;20045;-51
2023/10/17 03:20:11;;;;;;;6.60;5.82;;;10.00;68.90;;;;;;4989328;28;20189;-53
2023/10/17 03:22:40;;;;;;;7.43;5.65;;;10.00;68.80;;;;;;4991514;28;20046;-56
2023/10/17 03:25:19;;;;;;;7.72;6.03;;;10.00;68.60;;;;;;4990289;28;20480;-54
2023/10/17 03:27:50;;;;;;;5.28;4.78;;;10.00;68.60;;;;;;4986145;28;20053;-54
2023/10/17 03:30:21;;;;;;;8.32;5.65;;;10.00;68.40;;;;;;4990511;28;20042;-56
2023/10/17 03:35:35;;;;;;;7.53;5.60;;;9.90;68.30;;;;;;4989928;28;20072;-54
2023/10/17 03:38:09;;;;;;;5.95;4.55;;;9.90;68.40;;;;;;4991618;28;20046;-59
2023/10/17 03:40:51;;;;;;;6.72;5.03;;;9.90;68.30;;;;;;4987165;28;20078;-54
2023/10/17 03:43:28;;;;;;;5.72;5.18;;;9.90;68.30;;;;;;4992415;28;20133;-57
2023/10/17 03:46:03;;;;;;;5.20;4.68;;;9.90;68.30;;;;;;4990532;28;20038;-56
2023/10/17 03:48:29;;;;;;;5.80;5.13;;;9.90;68.30;;;;;;4987835;28;20543;-57
2023/10/17 03:51:08;;;;;;;5.65;4.95;;;9.80;68.30;;;;;;4991180;28;20058;-55
2023/10/17 03:53:47;;;;;;;8.82;5.63;;;9.80;68.30;;;;;;4992547;28;20081;-54
2023/10/17 03:56:24;;;;;;;5.40;4.90;;;9.80;68.40;;;;;;4985097;28;20070;-56
2023/10/17 03:58:59;;;;;;;5.80;5.20;;;9.90;68.50;;;;;;4991137;28;20590;-57
2023/10/17 04:01:27;;;;;;;5.57;4.82;;;9.80;68.60;;;;;;4991256;28;20076;-55
2023/10/17 04:03:54;;;;;;;5.63;4.93;;;9.90;68.70;;;;;;4986496;28;20047;-55
2023/10/17 04:09:17;;;;;;;;;;;9.80;68.80;;;;;;4992204;28;20088;-52
2023/10/17 04:11:46;;;;;;;5.50;4.85;;;9.90;69.60;;;;;;4978777;28;19921;-54
2023/10/17 04:14:13;;;;;;;5.07;4.50;;;9.90;68.50;;;;;;4973893;28;20141;-57
2023/10/17 04:16:40;;;;;;;5.43;4.63;;;9.90;68.70;;;;;;4991660;28;20038;-53
2023/10/17 04:19:16;;;;;;;6.60;5.53;;;9.90;69.00;;;;;;4990390;28;20497;-60
2023/10/17 04:21:49;;;;;;;5.63;4.82;;;9.90;69.00;;;;;;4989870;28;20046;-55
2023/10/17 04:24:26;;;;;;;7.60;4.82;;;9.90;68.90;;;;;;4991210;28;20500;-55
2023/10/17 04:27:18;;;;;;;5.60;4.72;;;9.90;69.10;;;;;;4983459;28;20034;-55
2023/10/17 04:30:14;;;;;;;5.35;4.38;;;9.90;69.20;;;;;;4991258;28;20516;-58
2023/10/17 04:32:38;;;;;;;5.32;4.10;;;10.00;69.40;;;;;;4983784;28;20559;-54
2023/10/17 04:35:08;;;;;;;4.97;4.22;;;10.00;69.40;;;;;;4985032;28;20092;-54
2023/10/17 04:37:37;;;;;;;4.68;4.25;;;10.00;69.60;;;;;;4992057;28;20117;-55
2023/10/17 04:45:20;;;;;;;5.78;4.35;;;10.00;69.60;;;;;;4990077;28;20092;-54
2023/10/17 04:47:47;;;;;;;5.50;4.78;;;10.00;69.70;;;;;;4991864;28;20117;-54
2023/10/17 04:50:15;;;;;;;4.38;3.67;;;10.10;69.80;;;;;;4990376;28;20066;-52
2023/10/17 04:52:44;;;;;;;10.65;4.70;;;10.10;69.80;;;;;;4986305;28;20042;-56
2023/10/17 04:55:30;;;;;;;5.57;4.50;;;10.10;69.80;;;;;;4987945;28;20153;-57
2023/10/17 04:58:19;;;;;;;4.43;3.95;;;10.10;69.80;;;;;;4988470;28;20038;-56
2023/10/17 05:03:45;;;;;;;5.30;4.35;;;10.10;69.60;;;;;;4988732;28;20133;-57
2023/10/17 06:18:18;;;;;;;6.63;5.05;;;10.10;70.10;;;;;;4990908;28;20043;-56
2023/10/17 06:21:06;;;;;;;6.03;4.47;;;10.10;70.00;;;;;;4982361;28;20046;-53
2023/10/17 06:34:42;;;;;;;6.13;5.50;;;10.10;70.60;;;;;;4977712;28;20711;-55
2023/10/17 06:37:09;;;;;;;6.78;5.32;;;10.10;70.40;;;;;;4990157;28;20587;-55
2023/10/17 06:39:45;;;;;;;7.60;5.65;;;10.20;70.70;;;;;;4989937;28;20050;-55
2023/10/17 06:42:15;;;;;;;6.75;5.80;;;10.20;70.80;;;;;;4987988;28;20097;-54
2023/10/17 06:44:53;;;;;;;6.55;4.90;;;10.20;70.80;;;;;;4988707;28;20125;-53
2023/10/17 06:47:30;;;;;;;6.95;6.07;;;10.20;70.80;;;;;;4989660;28;20488;-53
2023/10/17 06:52:40;;;;;;;7.68;5.55;;;10.30;70.90;;;;;;4988493;28;20061;-52
2023/10/17 06:55:08;;;;;;;6.63;5.22;;;10.40;70.90;;;;;;4986776;28;20061;-54
2023/10/17 06:57:36;;;;;;;6.55;5.32;;;10.40;70.90;;;;;;4986751;28;20050;-56
2023/10/17 07:00:16;;;;;;;6.75;5.30;;;10.40;70.90;;;;;;4990085;28;20771;-56
2023/10/17 07:02:49;;;;;;;6.28;5.63;;;10.50;70.90;;;;;;4990182;28;20501;-53
2023/10/17 07:05:21;;;;;;;;;;;10.50;71.10;;;;;;4987482;28;20052;-52
2023/10/17 07:07:54;;;;;;;5.75;4.72;;;10.60;71.50;;;;;;4986704;28;19969;-54
2023/10/17 07:13:28;;;;;;;8.32;5.55;;;10.60;70.50;;;;;;4982392;28;20035;-56
2023/10/17 07:15:55;;;;;;;7.53;4.93;;;10.70;71.10;;;;;;4981892;28;20515;-53
2023/10/17 07:18:44;;;;;;;5.82;5.20;;;10.70;70.70;;;;;;4978703;28;20046;-56
2023/10/17 07:23:42;;;;;;;7.88;5.35;;;10.80;71.00;;;;;;4987591;28;20129;-53
2023/10/17 07:28:59;;;;;;;6.57;5.68;;;10.90;71.00;;;;;;4988954;28;20045;-55
2023/10/17 07:31:29;;;;;;;7.18;4.90;;;11.00;71.00;;;;;;4992374;28;20035;-52
2023/10/17 07:36:38;;;;;;;6.40;5.47;;;11.10;70.80;;;;;;4991040;28;20089;-56
2023/10/17 07:39:16;;;;;;;5.35;4.78;;;11.10;70.70;;;;;;4992710;28;20045;-55
2023/10/17 07:41:52;;;;;;;6.88;5.57;;;11.20;70.80;;;;;;4991684;28;20496;-56
2023/10/17 07:44:21;;;;;;;8.38;5.47;;;11.20;70.80;;;;;;4992195;28;20050;-54
2023/10/17 07:46:50;;;;;;;5.07;4.57;;;11.20;70.80;;;;;;4992574;28;20092;-53
2023/10/17 07:49:26;;;;;;;6.00;4.97;;;11.30;70.80;;;;;;4992693;28;20109;-51
2023/10/17 07:51:54;;;;;;;5.55;4.57;;;11.40;70.90;;;;;;4989311;28;20500;-55
2023/10/17 07:54:28;;;;;;;5.18;4.68;;;11.40;70.50;;;;;;4992665;28;20122;-55
2023/10/17 07:56:58;;;;;;;7.45;4.95;;;11.50;70.40;;;;;;4989924;28;20505;-55
2023/10/17 07:59:30;;;;;;;8.80;5.05;;;11.50;70.30;;;;;;4986431;28;20579;-52
2023/10/17 08:01:59;;;;;;;4.72;4.22;;;11.50;70.30;;;;;;4987471;28;20073;-52
2023/10/17 08:04:30;;;;;;;5.82;4.03;;;11.60;70.30;;;;;;4990184;28;20972;-56
2023/10/17 08:06:57;;;;;;;3.90;3.60;;;11.60;70.10;;;;;;4990769;28;20061;-55
2023/10/17 08:09:24;;;;;;;4.97;3.85;;;11.70;70.00;;;;;;4992316;28;20524;-56
2023/10/17 08:12:12;;;;;;;5.65;4.38;;;11.70;70.00;;;;;;4985657;28;20527;-52
2023/10/17 08:14:44;;;;;;;6.90;3.58;;;11.80;69.80;;;;;;4990371;28;20054;-52
2023/10/17 08:17:14;;;;;;;4.55;3.72;;;11.90;69.60;;;;;;4992390;28;20040;-53
2023/10/17 08:20:38;;;;;;;5.03;3.33;;;11.90;69.50;;;;;;4981854;28;20066;-55
2023/10/17 08:22:55;;;;;;;5.32;3.90;;;12.00;69.50;;;;;;4989014;28;20109;-56
2023/10/17 08:25:38;;;;;;;4.90;3.15;;;12.00;69.40;;;;;;4989073;28;20386;-55
2023/10/17 08:28:14;;;;;;;3.90;3.50;;;12.10;69.30;;;;;;4988915;28;20121;-53
2023/10/17 08:30:51;;;;;;;3.58;2.63;;;12.20;69.30;;;;;;4990021;28;20053;-55
2023/10/17 08:33:19;;;;;;;3.33;2.92;;;12.20;68.90;;;;;;4989971;28;20052;-53
2023/10/17 08:35:51;;;;;;;4.78;3.00;;;12.30;68.70;;;;;;4991117;28;20125;-54
2023/10/17 08:38:18;;;;;;;4.07;3.67;;;12.30;68.40;;;;;;4991748;28;20125;-53
2023/10/17 08:40:49;;;;;;;4.18;3.22;;;12.40;68.20;;;;;;4987579;28;20128;-53
2023/10/17 08:43:19;;;;;;;4.00;3.13;;;12.40;68.20;;;;;;4992481;28;20141;-54
2023/10/17 08:45:47;;;;;;;3.25;2.70;;;12.50;67.90;;;;;;4991622;28;20046;-55
2023/10/17 08:48:14;;;;;;;3.38;3.10;;;12.50;67.50;;;;;;4983487;28;20659;-55
2023/10/17 08:50:43;;;;;;;3.75;2.92;;;12.50;67.10;;;;;;4990830;28;20054;-53
2023/10/17 08:53:20;;;;;;;3.67;2.92;;;12.40;66.80;;;;;;4992538;28;20089;-55
2023/10/17 08:55:50;;;;;;;3.20;2.35;;;12.40;66.60;;;;;;4987043;28;20046;-56
2023/10/17 08:58:17;;;;;;;2.63;2.10;;;12.40;66.40;;;;;;4992159;28;20096;-55
2023/10/17 09:03:37;;;;;;;2.88;2.47;;;12.30;66.40;;;;;;4988385;28;20057;-55
2023/10/17 09:11:25;;;;;;;3.28;2.70;;;12.10;66.60;;;;;;4986577;28;20531;-52
2023/10/17 09:14:12;;;;;;;5.38;2.83;;;12.00;66.50;;;;;;4990401;28;20049;-55
2023/10/17 09:16:41;;;;;;;2.70;2.45;;;12.00;66.50;;;;;;4990922;28;20129;-54
2023/10/17 09:19:10;;;;;;;3.15;2.85;;;11.90;66.60;;;;;;4988108;28;20042;-54
2023/10/17 09:21:42;;;;;;;4.15;2.83;;;11.90;66.60;;;;;;4988020;28;20081;-54
2023/10/17 09:24:40;;;;;;;4.75;3.08;;;11.90;66.80;;;;;;4991082;28;20520;-55
2023/10/17 09:27:12;;;;;;;3.83;2.97;;;11.90;66.80;;;;;;4974783;28;20057;-54
2023/10/17 09:29:52;;;;;;;;;;;11.90;66.80;;;;;;4991125;28;20042;-53
2023/10/17 09:32:37;;;;;;;3.33;2.33;;;12.00;67.00;;;;;;4990835;28;19961;-54
2023/10/17 09:35:15;;;;;;;5.60;2.45;;;12.00;66.70;;;;;;4988485;28;20038;-52
2023/10/17 09:37:50;;;;;;;5.10;2.95;;;12.00;66.70;;;;;;4988499;28;20578;-55
2023/10/17 09:40:29;;;;;;;2.88;2.10;;;12.00;66.50;;;;;;4989949;28;20507;-52
2023/10/17 09:43:00;;;;;;;3.50;2.10;;;12.00;66.70;;;;;;4990371;28;20121;-55
2023/10/17 09:45:33;;;;;;;2.80;1.90;;;12.00;66.60;;;;;;4987699;28;20129;-53
2023/10/17 09:48:07;;;;;;;3.92;2.65;;;11.90;66.30;;;;;;4987584;28;20122;-54
2023/10/17 09:50:37;;;;;;;4.43;2.22;;;12.10;66.10;;;;;;4986558;28;20114;-54
2023/10/17 09:53:28;;;;;;;2.55;1.98;;;12.10;66.00;;;;;;4991923;28;20476;-55
2023/10/17 09:55:58;;;;;;;2.45;1.98;;;12.20;65.50;;;;;;4981116;28;20097;-55
2023/10/17 09:58:28;;;;;;;2.05;1.83;;;12.20;65.70;;;;;;4989171;28;20046;-53
2023/10/17 10:01:05;;;;;;;1.80;1.70;;;12.20;65.40;;;;;;4988307;28;20104;-55
2023/10/17 10:03:35;;;;;;;4.00;2.15;;;12.30;65.10;;;;;;4990964;28;20100;-54
2023/10/17 10:06:21;;;;;;;2.72;1.65;;;12.30;65.00;;;;;;4987478;28;20357;-55
2023/10/17 10:08:54;;;;;;;2.10;1.60;;;12.40;63.70;;;;;;4987367;28;20066;-53
2023/10/17 10:11:41;;;;;;;2.40;2.17;;;12.40;64.20;;;;;;4984742;28;20528;-54
2023/10/17 10:14:11;;;;;;;3.85;1.80;;;12.50;64.00;;;;;;4987360;28;20058;-52
2023/10/17 10:16:49;;;;;;;4.93;1.80;;;12.50;63.90;;;;;;4989937;28;20468;-53
2023/10/17 10:19:18;;;;;;;3.35;1.65;;;12.60;63.40;;;;;;4979206;28;20557;-55
2023/10/17 10:21:55;;;;;;;3.10;1.60;;;12.60;63.80;;;;;;4980563;28;20100;-56
2023/10/17 10:24:31;;;;;;;1.38;1.27;;;12.70;63.40;;;;;;4990909;28;20050;-52
2023/10/17 10:27:14;;;;;;;2.67;1.50;;;12.70;63.00;;;;;;4984327;28;20070;-56
2023/10/17 10:29:54;;;;;;;2.70;1.42;;;12.70;62.20;;;;;;4989368;28;20045;-55
2023/10/17 10:32:38;;;;;;;2.00;1.40;;;12.80;62.70;;;;;;4988586;28;20053;-56
2023/10/17 10:35:06;;;;;;;1.42;1.20;;;12.80;62.20;;;;;;4984841;28;20118;-52
2023/10/17 10:37:52;;;;;;;2.42;1.10;;;12.90;62.60;;;;;;4990313;28;20520;-56
2023/10/17 10:40:30;;;;;;;1.63;1.13;;;12.90;61.50;;;;;;4986497;28;20499;-52
2023/10/17 10:43:04;;;;;;;2.05;1.27;;;13.00;62.10;;;;;;4990018;28;20050;-51
2023/10/17 10:45:50;;;;;;;2.28;1.13;;;13.10;61.90;;;;;;4989027;28;20054;-52
2023/10/17 10:48:18;;;;;;;2.25;1.30;;;13.10;61.10;;;;;;4988279;28;20424;-55
2023/10/17 10:50:47;;;;;;;1.95;1.20;;;13.10;61.20;;;;;;4986149;28;20045;-51
2023/10/17 10:53:29;;;;;;;3.03;1.30;;;13.20;61.20;;;;;;4990785;28;20398;-52
2023/10/17 10:55:57;;;;;;;1.27;0.80;;;13.20;60.90;;;;;;4984412;28;20043;-54
2023/10/17 10:58:25;;;;;;;1.23;1.10;;;13.30;62.20;;;;;;4989803;28;20113;-51
2023/10/17 11:00:56;;;;;;;2.25;1.23;;;13.30;61.60;;;;;;4990428;28;20065;-53
2023/10/17 11:03:22;;;;;;;1.20;1.00;;;13.30;61.00;;;;;;4994627;28;20434;-56
2023/10/17 11:05:58;;;;;;;0.77;0.77;;;13.40;60.90;;;;;;4990552;28;20054;-56
2023/10/17 11:08:37;;;;;;;2.45;0.90;;;13.40;59.90;;;;;;4993997;28;20124;-52
2023/10/17 11:11:05;;;;;;;3.90;1.30;;;13.50;60.10;;;;;;4989399;28;20058;-55
2023/10/17 11:13:43;;;;;;;2.50;0.90;;;13.50;60.40;;;;;;4993427;28;20052;-55
2023/10/17 11:16:14;;;;;;;0.73;0.70;;;13.60;59.90;;;;;;4990932;28;20093;-55
2023/10/17 11:18:43;;;;;;;3.28;1.38;;;13.60;60.40;;;;;;4991310;28;20174;-52
2023/10/17 11:21:11;;;;;;;2.38;1.23;;;13.60;60.60;;;;;;4988850;28;20122;-54
2023/10/17 11:23:47;;;;;;;3.00;1.27;;;13.70;60.30;;;;;;4993873;28;20054;-53
2023/10/17 11:26:17;;;;;;;1.63;1.10;;;13.70;59.50;;;;;;4978901;28;20085;-51
2023/10/17 11:28:55;;;;;;;4.00;1.10;;;13.80;59.30;;;;;;5015301;23;20120;-49
2023/10/17 11:31:24;;;;;;;2.53;0.90;;;13.80;59.40;;;;;;4990180;28;20047;-48
2023/10/17 11:34:07;;;;;;;1.60;0.90;;;13.80;59.10;;;;;;4990051;28;20050;-50
2023/10/17 11:36:47;;;;;;;1.90;1.00;;;13.90;58.80;;;;;;4989433;28;20054;-50
2023/10/17 11:39:18;;;;;;;1.60;1.20;;;14.00;58.40;;;;;;4987914;28;20125;-50
2023/10/17 11:41:53;;;;;;;1.73;1.63;;;14.00;59.00;;;;;;4988678;28;20053;-49
2023/10/17 11:44:24;;;;;;;2.25;1.13;;;14.00;58.80;;;;;;4987020;28;20046;-48
2023/10/17 11:46:57;;;;;;;1.27;0.73;;;14.00;58.80;;;;;;4984921;28;20552;-49
2023/10/17 11:49:28;;;;;;;0.60;0.57;;;14.10;59.40;;;;;;4987049;28;20054;-52
2023/10/17 11:52:01;;;;;;;1.60;0.98;;;14.10;58.80;;;;;;4988548;28;20467;-52
2023/10/17 11:54:32;;;;;;;0.68;0.60;;;14.20;58.40;;;;;;4987471;28;20057;-52
2023/10/17 11:57:12;;;;;;;0.82;0.70;;;14.20;58.50;;;;;;4984900;28;20046;-52
2023/10/17 12:00:07;;;;;;;2.30;1.08;;;14.20;58.00;;;;;;4988560;28;20050;-52
2023/10/17 12:02:41;;;;;;;1.35;0.73;;;14.30;58.00;;;;;;4983434;28;20085;-49
2023/10/17 12:05:18;;;;;;;2.17;0.98;;;14.30;58.20;;;;;;4984425;28;20046;-52
2023/10/17 12:07:49;;;;;;;1.50;0.88;;;14.30;58.20;;;;;;4991222;28;20507;-52
2023/10/17 12:10:16;;;;;;;2.78;0.98;;;14.40;57.90;;;;;;4986037;28;20452;-51
2023/10/17 12:12:44;;;;;;;1.15;0.80;;;14.40;57.60;;;;;;4988937;28;20039;-52
2023/10/17 12:15:20;;;;;;;2.00;1.23;;;14.50;57.70;;;;;;4973570;28;20050;-51
2023/10/17 12:17:50;;;;;;;3.08;1.10;;;14.50;57.40;;;;;;4972832;28;20035;-50
2023/10/17 12:20:22;;;;;;;2.35;0.80;;;14.50;57.30;;;;;;4978624;28;20069;-49
2023/10/17 12:22:57;;;;;;;1.65;1.33;;;14.60;57.20;;;;;;4989870;28;20496;-51
2023/10/17 12:25:23;;;;;;;1.52;1.02;;;14.60;57.00;;;;;;4986298;28;20070;-48
2023/10/17 12:27:52;;;;;;;0.65;0.63;;;14.70;57.30;;;;;;4991084;28;20116;-49
2023/10/17 12:30:24;;;;;;;1.13;0.82;;;14.70;57.10;;;;;;4986666;28;20525;-48
2023/10/17 12:32:51;;;;;;;1.42;0.80;;;14.80;57.30;;;;;;4990303;28;20100;-50
2023/10/17 12:35:21;;;;;;;1.00;1.00;;;14.80;57.10;;;;;;4984926;28;20086;-47
2023/10/17 12:37:57;;;;;;;1.17;1.08;;;14.90;56.50;;;;;;4985292;28;20046;-53
2023/10/17 12:40:27;;;;;;;1.23;1.05;;;14.90;56.70;;;;;;4987993;28;20043;-51
2023/10/17 12:42:56;;;;;;;;;;;15.00;56.50;;;;;;4987670;28;20062;-48
2023/10/17 12:45:24;;;;;;;1.17;1.05;;;15.10;57.00;;;;;;4983298;28;20016;-49
2023/10/17 12:47:51;;;;;;;1.77;1.05;;;15.20;56.50;;;;;;4989441;28;20041;-52
2023/10/17 12:50:20;;;;;;;1.05;0.63;;;15.20;56.20;;;;;;4984101;28;20042;-52
2023/10/17 12:52:47;;;;;;;0.80;0.80;;;15.20;55.90;;;;;;4984032;28;20485;-52
2023/10/17 12:55:14;;;;;;;1.33;1.13;;;15.30;55.80;;;;;;4985902;28;20062;-49
2023/10/17 12:57:43;;;;;;;2.28;0.80;;;15.40;55.70;;;;;;4989338;28;20551;-50
2023/10/17 13:00:11;;;;;;;1.23;0.60;;;15.40;55.70;;;;;;4987062;28;20552;-51
2023/10/17 13:02:40;;;;;;;0.60;0.60;;;15.40;55.10;;;;;;4988762;28;20519;-50
2023/10/17 13:05:10;;;;;;;1.05;0.60;;;15.50;54.50;;;;;;4985768;28;20074;-52
2023/10/17 13:07:38;;;;;;;0.45;0.45;;;15.50;55.30;;;;;;4981397;28;20409;-50
2023/10/17 13:10:07;;;;;;;0.50;0.50;;;15.50;54.70;;;;;;4987244;28;20576;-49
2023/10/17 13:12:34;;;;;;;0.75;0.75;;;15.60;54.60;;;;;;4985889;28;20045;-49
2023/10/17 13:15:01;;;;;;;0.77;0.50;;;15.60;54.50;;;;;;4974841;28;20051;-51
2023/10/17 13:17:28;;;;;;;0.60;0.60;;;15.70;54.40;;;;;;4971184;28;20069;-49
2023/10/17 13:19:57;;;;;;;1.10;0.60;;;15.70;54.50;;;;;;4980969;28;20045;-49
2023/10/17 13:22:24;;;;;;;0.93;0.73;;;15.80;54.60;;;;;;4984112;28;20047;-50
2023/10/17 13:24:51;;;;;;;0.57;0.45;;;15.80;53.90;;;;;;4988383;28;20408;-46
2023/10/17 13:27:17;;;;;;;0.98;0.60;;;15.90;53.70;;;;;;4987963;28;20046;-48
2023/10/17 13:29:47;;;;;;;1.02;0.50;;;15.90;53.80;;;;;;4987554;28;20113;-48
2023/10/17 13:32:16;;;;;;;1.15;0.80;;;16.00;54.00;;;;;;4989307;28;20109;-48
2023/10/17 13:34:43;;;;;;;1.13;0.90;;;16.20;54.70;;;;;;4988576;28;20042;-48
2023/10/17 13:37:11;;;;;;;1.65;0.73;;;16.60;55.30;;;;;;4984860;28;20049;-52
2023/10/17 13:39:38;;;;;;;0.95;0.60;;;17.30;55.80;;;;;;4989376;28;20571;-50
2023/10/17 13:42:05;;;;;;;0.80;0.80;;;18.10;55.40;;;;;;4988702;28;20038;-48
2023/10/17 13:44:34;;;;;;;0.60;0.60;;;19.10;53.90;;;;;;4986525;28;20546;-46
2023/10/17 13:47:01;;;;;;;2.63;0.50;;;19.90;52.00;;;;;;4985872;28;20078;-49
2023/10/17 13:49:30;;;;;;;0.50;0.50;;;20.70;50.60;;;;;;4989015;28;20042;-48
2023/10/17 13:51:58;;;;;;;1.25;0.60;;;21.50;49.40;;;;;;4989784;28;20042;-48
2023/10/17 13:54:28;;;;;;;1.02;0.70;;;22.20;48.20;;;;;;4985645;28;20039;-53
2023/10/17 13:56:55;;;;;;;2.28;0.82;;;22.90;46.70;;;;;;4978929;28;20043;-49
2023/10/17 13:59:38;;;;;;;0.75;0.60;;;23.60;46.00;;;;;;4987252;28;20096;-50
2023/10/17 14:02:06;;;;;;;0.82;0.50;;;24.20;44.70;;;;;;4989622;28;20072;-50
2023/10/17 14:04:38;;;;;;;1.30;0.95;;;24.80;43.30;;;;;;4979604;28;20049;-54
2023/10/17 14:07:05;;;;;;;2.90;0.75;;;25.10;41.60;;;;;;4983897;28;20073;-53
2023/10/17 14:09:32;;;;;;;1.17;0.98;;;25.10;41.70;;;;;;4989028;28;20046;-53
2023/10/17 14:11:59;;;;;;;1.25;0.63;;;25.00;40.60;;;;;;4987350;28;20039;-53
2023/10/17 14:14:29;;;;;;;1.13;0.50;;;24.80;40.20;;;;;;4979749;28;20047;-50
2023/10/17 14:16:58;;;;;;;1.42;0.40;;;24.50;40.20;;;;;;4978975;28;20054;-49
2023/10/17 14:19:39;;;;;;;0.93;0.73;;;24.30;40.30;;;;;;4982571;28;20632;-51
2023/10/17 14:27:29;;;;;;;0.73;0.68;;;23.30;40.30;;;;;;4985446;28;20131;-49
2023/10/17 14:29:59;;;;;;;0.90;0.50;;;23.00;40.80;;;;;;4989349;28;20034;-49
2023/10/17 14:32:28;;;;;;;0.98;0.68;;;22.70;41.10;;;;;;4990422;28;20045;-50
2023/10/17 14:34:56;;;;;;;0.75;0.68;;;22.40;40.80;;;;;;4988308;28;20040;-51
2023/10/17 14:37:28;;;;;;;0.50;0.45;;;22.00;41.40;;;;;;4992661;28;20096;-52
2023/10/17 14:39:58;;;;;;;0.70;0.70;;;21.80;41.80;;;;;;4987513;28;20035;-52
2023/10/17 14:42:27;;;;;;;0.73;0.55;;;21.50;42.10;;;;;;4976484;28;20096;-48
2023/10/17 14:44:55;;;;;;;0.90;0.60;;;21.30;42.80;;;;;;4975434;28;20070;-49
2023/10/17 14:47:21;;;;;;;2.95;0.70;;;21.10;42.80;;;;;;4975005;28;20542;-50
2023/10/17 14:49:48;;;;;;;1.15;0.60;;;21.00;42.80;;;;;;4974764;28;20118;-50
2023/10/17 14:52:18;;;;;;;0.90;0.80;;;21.00;43.60;;;;;;4980134;28;20043;-53
2023/10/17 14:54:48;;;;;;;0.93;0.80;;;21.20;44.20;;;;;;4978981;28;20110;-49
2023/10/17 14:57:16;;;;;;;1.35;0.60;;;21.50;44.50;;;;;;4977998;28;20074;-51
2023/10/17 14:59:44;;;;;;;0.57;0.57;;;22.10;44.20;;;;;;4975751;28;20066;-47
2023/10/17 15:02:14;;;;;;;0.88;0.70;;;22.80;44.20;;;;;;4975280;28;20055;-51
2023/10/17 15:04:40;;;;;;;0.35;0.30;;;23.40;43.40;;;;;;4980577;28;20113;-48
2023/10/17 15:07:12;;;;;;;0.82;0.50;;;24.40;42.60;;;;;;4977755;28;20093;-52
2023/10/17 15:09:38;;;;;;;0.75;0.52;;;25.10;41.30;;;;;;4981797;28;20117;-49
2023/10/17 15:12:05;;;;;;;1.55;0.70;;;25.90;40.30;;;;;;4976383;28;20039;-53
2023/10/17 15:14:34;;;;;;;0.95;0.52;;;26.50;39.60;;;;;;4973332;28;20050;-49
2023/10/17 15:17:01;;;;;;;1.30;0.50;;;27.10;38.50;;;;;;4974272;28;20501;-51
2023/10/17 15:19:30;;;;;;;1.95;0.70;;;27.60;37.80;;;;;;4980811;28;20048;-51
2023/10/17 15:21:57;;;;;;;0.43;0.43;;;28.10;37.00;;;;;;4978996;28;20061;-52
2023/10/17 15:24:25;;;;;;;0.50;0.50;;;28.40;36.80;;;;;;4976465;28;20050;-50